Crown Of Scandinavia — OXRA6 — position and weather

sailwx.info

Track history (hours):
 
Tides and Currents Weather Stations Pressure Air Temp Water Temp Dewpoint Dewpoint Depression Visibility Wind Speed Wind Dir Waves Ship Positions

Crown Of Scandinavia

Last reported at 2019-May-20 01:38 UTC. Time now 2019-May-20 02:26 UTC.
Position N 57°11' E 011°57'.

Length 171 m; draft 6.3 m.

Type: Ship. MMSI: 219592000.

Date/timePositionNaut miles runAvg speedWind from/ knotsBaromVisibWave heightAir tempDewpointWater temp
2019-May-20 01:38N 57°11' E 011°57'216.4
2019-May-20 01:30N 57°12' E 011°55'816.3
2019-May-20 01:00N 57°19' E 011°46'816.1
2019-May-20 00:30N 57°26' E 011°38'816.2
2019-May-20 00:00N 57°32' E 011°30'816.4
2019-May-19 23:30N 57°39' E 011°21'816.2
2019-May-19 23:00N 57°46' E 011°14'815.5
2019-May-19 22:30N 57°53' E 011°06'815.5
2019-May-19 22:00N 58°00' E 011°01'816.3
2019-May-19 21:30N 58°08' E 010°55'816.6
2019-May-19 21:00N 58°15' E 010°48'816.4
2019-May-19 20:30N 58°23' E 010°43'816.0
2019-May-19 20:00N 58°30' E 010°38'815.9
2019-May-19 19:30N 58°38' E 010°36'816.1
2019-May-19 19:00N 58°46' E 010°35'815.9
2019-May-19 18:30N 58°54' E 010°35'816.3
2019-May-19 18:00N 59°02' E 010°37'816.5
2019-May-19 17:30N 59°10' E 010°38'816.5
2019-May-19 17:00N 59°19' E 010°35'816.4
2019-May-19 16:30N 59°27' E 010°33'816.0
2019-May-19 16:00N 59°34' E 010°38'713.8
2019-May-19 15:30N 59°41' E 010°36'714.8
2019-May-19 15:00N 59°49' E 010°34'713.6
2019-May-19 14:30N 59°54' E 010°43'1 1.5
2019-May-19 13:58N 59°54' E 010°45'0 0.0
2019-May-19 13:28N 59°54' E 010°45'0 0.0
2019-May-19 12:58N 59°54' E 010°45'0 0.0
2019-May-19 12:28N 59°54' E 010°45'0 0.0
2019-May-19 11:58N 59°54' E 010°45'0 0.0
2019-May-19 11:28N 59°54' E 010°45'0 0.0
2019-May-19 10:58N 59°54' E 010°45'0 0.0
2019-May-19 10:28N 59°54' E 010°45'0 0.0
2019-May-19 09:58N 59°54' E 010°45'0 0.0
2019-May-19 09:28N 59°54' E 010°45'0 0.0
2019-May-19 08:58N 59°54' E 010°45'0 0.0
2019-May-19 08:28N 59°54' E 010°45'0 0.0
2019-May-19 08:00N 59°54' E 010°45'0 0.6
2019-May-19 07:30N 59°54' E 010°44'713.7
2019-May-19 07:00N 59°49' E 010°35'714.4
2019-May-19 06:30N 59°42' E 010°36'714.3
2019-May-19 06:00N 59°35' E 010°38'815.9
2019-May-19 05:30N 59°27' E 010°34'815.6
2019-May-19 05:00N 59°19' E 010°36'815.7
2019-May-19 04:30N 59°12' E 010°39'815.2
2019-May-19 04:00N 59°04' E 010°40'815.5
2019-May-19 03:30N 58°56' E 010°42'815.6
2019-May-19 03:00N 58°49' E 010°45'815.7
2019-May-19 02:30N 58°41' E 010°47'815.7
2019-May-19 02:00N 58°33' E 010°50'815.5
2019-May-19 01:30N 58°26' E 010°55'815.7
2019-May-19 01:00N 58°19' E 011°01'815.7
2019-May-19 00:30N 58°11' E 011°06'816.0
2019-May-19 00:00N 58°04' E 011°11'815.8
2019-May-18 23:30N 57°56' E 011°16'816.2
2019-May-18 23:00N 57°49' E 011°22'816.3
2019-May-18 22:30N 57°41' E 011°27'816.3
2019-May-18 22:00N 57°34' E 011°32'816.3
2019-May-18 21:30N 57°26' E 011°38'816.2
2019-May-18 21:00N 57°19' E 011°46'816.1
2019-May-18 20:30N 57°12' E 011°53'815.9
2019-May-18 20:00N 57°05' E 011°59'816.0
2019-May-18 19:30N 56°57' E 012°05'4916.3
2019-May-18 16:31N 56°11' E 012°29'017.8
2019-May-18 16:30N 56°11' E 012°30'917.6
2019-May-18 16:00N 56°04' E 012°39'816.5
2019-May-18 15:30N 55°56' E 012°44'815.7
2019-May-18 15:00N 55°48' E 012°43'613.0
2019-May-18 14:30N 55°42' E 012°37'1 0.9
2019-May-18 13:58N 55°42' E 012°36'0 0.0
2019-May-18 13:28N 55°42' E 012°36'0 0.0
2019-May-18 12:58N 55°42' E 012°36'0 0.0
2019-May-18 12:28N 55°42' E 012°36'0 0.0
2019-May-18 11:58N 55°42' E 012°36'0 0.0
2019-May-18 11:28N 55°42' E 012°36'0 0.0
2019-May-18 10:55N 55°42' E 012°36'0 0.0
2019-May-18 10:28N 55°42' E 012°36'0 0.0
2019-May-18 09:58N 55°42' E 012°36'0 0.0
2019-May-18 09:28N 55°42' E 012°36'0 0.0
2019-May-18 08:58N 55°42' E 012°36'0 0.0
2019-May-18 08:28N 55°42' E 012°36'0 0.0
2019-May-18 08:00N 55°42' E 012°36'2 3.0
2019-May-18 07:30N 55°43' E 012°38'714.0
2019-May-18 07:01N 55°50' E 012°42'815.4
2019-May-18 06:30N 55°57' E 012°38'714.7
2019-May-18 06:00N 56°04' E 012°37'816.0
2019-May-18 05:30N 56°09' E 012°25'5417.1
2019-May-18 02:22N 56°58' E 011°43'617.4
2019-May-18 02:00N 57°04' E 011°40'816.9
2019-May-18 01:30N 57°12' E 011°33'815.7
2019-May-18 01:00N 57°19' E 011°28'816.1
2019-May-18 00:30N 57°27' E 011°25'816.2
2019-May-18 00:00N 57°34' E 011°18'815.8
2019-May-17 23:30N 57°41' E 011°11'815.9
2019-May-17 23:00N 57°49' E 011°07'816.3
2019-May-17 22:30N 57°56' E 011°02'816.6
2019-May-17 22:00N 58°04' E 010°56'816.7
2019-May-17 21:30N 58°12' E 010°51'917.0
2019-May-17 21:00N 58°20' E 010°45'816.7
2019-May-17 20:30N 58°28' E 010°40'816.2
2019-May-17 20:00N 58°36' E 010°36'816.0
2019-May-17 19:30N 58°44' E 010°35'816.4
2019-May-17 19:00N 58°52' E 010°35'816.6
2019-May-17 18:30N 58°60' E 010°36'816.7
2019-May-17 18:00N 59°08' E 010°38'816.4
2019-May-17 17:30N 59°16' E 010°36'816.5
2019-May-17 17:00N 59°25' E 010°34'816.1
2019-May-17 16:30N 59°33' E 010°36'714.9
2019-May-17 16:00N 59°40' E 010°37'612.7
2019-May-17 15:30N 59°46' E 010°33'713.7
2019-May-17 15:00N 59°52' E 010°38'4 7.2
2019-May-17 14:30N 59°54' E 010°45'0 0.0
2019-May-17 13:59N 59°54' E 010°45'0 0.0
2019-May-17 13:29N 59°54' E 010°45'0 0.0
2019-May-17 12:59N 59°54' E 010°45'0 0.0
2019-May-17 12:29N 59°54' E 010°45'0 0.0
2019-May-17 11:59N 59°54' E 010°45'0 0.0
2019-May-17 11:29N 59°54' E 010°45'0 0.0
2019-May-17 10:59N 59°54' E 010°45'0 0.0
2019-May-17 10:29N 59°54' E 010°45'0 0.0
2019-May-17 09:59N 59°54' E 010°45'0 0.0
2019-May-17 09:29N 59°54' E 010°45'0 0.0
2019-May-17 08:59N 59°54' E 010°45'0 0.0
2019-May-17 08:29N 59°54' E 010°45'0 0.0
2019-May-17 07:59N 59°54' E 010°45'0 0.5
2019-May-17 07:30N 59°54' E 010°44'714.2
2019-May-17 07:00N 59°49' E 010°35'714.6
2019-May-17 06:31N 59°42' E 010°36'714.4
2019-May-17 06:00N 59°34' E 010°38'815.9
2019-May-17 05:30N 59°27' E 010°34'815.7
2019-May-17 05:00N 59°19' E 010°36'815.8
2019-May-17 04:30N 59°11' E 010°39'815.9
2019-May-17 04:00N 59°03' E 010°41'816.0
2019-May-17 03:30N 58°55' E 010°42'816.3
2019-May-17 03:00N 58°47' E 010°45'816.1
2019-May-17 02:30N 58°39' E 010°46'816.0
2019-May-17 02:00N 58°32' E 010°52'815.9
2019-May-17 01:30N 58°24' E 010°57'816.1
2019-May-17 01:00N 58°17' E 011°03'816.3
2019-May-17 00:30N 58°09' E 011°08'816.1
2019-May-17 00:00N 58°02' E 011°13'816.3
2019-May-16 23:30N 57°54' E 011°18'816.4
2019-May-16 23:00N 57°46' E 011°24'816.7
2019-May-16 22:30N 57°39' E 011°30'816.5
2019-May-16 22:00N 57°31' E 011°37'816.5
2019-May-16 21:30N 57°23' E 011°41'816.4
2019-May-16 21:00N 57°16' E 011°48'816.7
2019-May-16 20:30N 57°09' E 011°56'816.6
2019-May-16 20:00N 57°01' E 012°02'5316.4
2019-May-16 16:47N 56°10' E 012°29'517.9
2019-May-16 16:30N 56°06' E 012°34'817.0
2019-May-16 16:00N 55°59' E 012°42'816.4
2019-May-16 15:30N 55°51' E 012°44'815.4
2019-May-16 15:00N 55°44' E 012°39'3 4.7
2019-May-16 14:28N 55°42' E 012°36'0 0.0
2019-May-16 13:52N 55°42' E 012°36'0 0.0
2019-May-16 13:22N 55°42' E 012°36'0 0.0
2019-May-16 12:58N 55°42' E 012°36'0 0.0
2019-May-16 12:28N 55°42' E 012°36'0 0.0
2019-May-16 11:58N 55°42' E 012°36'0 0.0
2019-May-16 11:28N 55°42' E 012°36'0 0.0
2019-May-16 10:55N 55°42' E 012°36'0 0.0
2019-May-16 10:28N 55°42' E 012°36'0 0.0
2019-May-16 09:58N 55°42' E 012°36'0 0.0
2019-May-16 09:25N 55°42' E 012°36'0 0.0
2019-May-16 08:55N 55°42' E 012°36'0 0.0
2019-May-16 08:28N 55°42' E 012°36'0 0.0
2019-May-16 07:55N 55°42' E 012°36'1 1.4
2019-May-16 07:30N 55°42' E 012°37'613.1
2019-May-16 07:01N 55°48' E 012°42'815.0
2019-May-16 06:31N 55°55' E 012°39'816.1
2019-May-16 06:01N 56°04' E 012°38'815.5
2019-May-16 05:31N 56°09' E 012°28'2116.5
2019-May-16 04:14N 56°29' E 012°16'4517.5
2019-May-16 01:39N 57°12' E 011°54'317.3
2019-May-16 01:30N 57°14' E 011°51'817.0
2019-May-16 01:01N 57°21' E 011°43'917.0
2019-May-16 00:31N 57°28' E 011°33'817.0
2019-May-16 00:00N 57°35' E 011°23'816.6
2019-May-15 23:31N 57°42' E 011°17'817.0
2019-May-15 23:00N 57°50' E 011°11'816.9
2019-May-15 22:31N 57°57' E 011°03'917.1
2019-May-15 22:00N 58°05' E 010°56'817.0
2019-May-15 21:30N 58°13' E 010°50'917.1
2019-May-15 21:00N 58°21' E 010°44'816.5
2019-May-15 20:31N 58°29' E 010°39'815.8
2019-May-15 20:01N 58°37' E 010°37'816.7
2019-May-15 19:30N 58°45' E 010°36'817.0
2019-May-15 19:01N 58°53' E 010°35'816.9
2019-May-15 18:31N 59°02' E 010°37'816.8
2019-May-15 18:00N 59°10' E 010°38'816.4
2019-May-15 17:31N 59°18' E 010°36'816.6
2019-May-15 17:00N 59°26' E 010°33'816.3
2019-May-15 16:30N 59°34' E 010°38'714.6
2019-May-15 16:00N 59°41' E 010°36'815.3
2019-May-15 15:30N 59°49' E 010°34'713.7
2019-May-15 15:00N 59°54' E 010°44'0 0.9
2019-May-15 14:30N 59°54' E 010°45'0 0.0
2019-May-15 14:00N 59°54' E 010°45'0 0.0
2019-May-15 13:30N 59°54' E 010°45'0 0.0
2019-May-15 12:58N 59°54' E 010°45'0 0.0
2019-May-15 12:30N 59°54' E 010°45'0 0.0
2019-May-15 12:00N 59°54' E 010°45'0 0.0
2019-May-15 11:29N 59°54' E 010°45'0 0.0
2019-May-15 10:59N 59°54' E 010°45'0 0.0
2019-May-15 10:28N 59°54' E 010°45'0 0.0
2019-May-15 10:00N 59°54' E 010°45'0 0.0
2019-May-15 09:31N 59°54' E 010°45'0 0.0
2019-May-15 09:00N 59°54' E 010°45'0 0.0
2019-May-15 08:30N 59°54' E 010°45'0 0.0
2019-May-15 07:59N 59°54' E 010°45'0 0.3
2019-May-15 07:30N 59°54' E 010°45'611.9
2019-May-15 07:00N 59°50' E 010°36'714.6
2019-May-15 06:30N 59°43' E 010°35'713.9
2019-May-15 06:01N 59°36' E 010°38'815.5
2019-May-15 05:30N 59°28' E 010°35'815.5
2019-May-15 05:00N 59°21' E 010°36'815.9
2019-May-15 04:30N 59°13' E 010°38'815.9
2019-May-15 04:00N 59°05' E 010°41'815.9
2019-May-15 03:30N 58°57' E 010°42'815.9
2019-May-15 03:01N 58°49' E 010°44'815.8
2019-May-15 02:30N 58°41' E 010°46'816.0
2019-May-15 02:00N 58°34' E 010°51'816.0
2019-May-15 01:31N 58°26' E 010°56'815.8
2019-May-15 01:00N 58°19' E 011°02'816.1
2019-May-15 00:31N 58°11' E 011°06'816.5
2019-May-15 00:00N 58°03' E 011°11'816.3
2019-May-14 23:31N 57°56' E 011°16'816.1
2019-May-14 23:01N 57°48' E 011°21'816.1
2019-May-14 22:31N 57°41' E 011°27'816.2
2019-May-14 22:00N 57°33' E 011°33'816.3
2019-May-14 21:30N 57°26' E 011°39'816.3
2019-May-14 21:01N 57°19' E 011°46'816.6
2019-May-14 20:30N 57°11' E 011°54'816.7
2019-May-14 20:01N 57°04' E 011°60'916.9
2019-May-14 19:30N 56°55' E 012°04'816.9
2019-May-14 19:00N 56°48' E 012°09'4016.3
2019-May-14 16:34N 56°10' E 012°29'117.2
2019-May-14 16:31N 56°09' E 012°30'816.8
2019-May-14 16:00N 56°02' E 012°40'816.2
2019-May-14 15:30N 55°54' E 012°44'815.5
2019-May-14 15:01N 55°47' E 012°42'611.4
2019-May-14 14:30N 55°42' E 012°36'0 0.1
2019-May-14 13:59N 55°42' E 012°36'0 0.0
2019-May-14 13:20N 55°42' E 012°36'0 0.0
2019-May-14 12:59N 55°42' E 012°36'0 0.0
2019-May-14 12:29N 55°42' E 012°36'0 0.0
2019-May-14 11:56N 55°42' E 012°36'0 0.0
2019-May-14 11:14N 55°42' E 012°36'0 0.0
2019-May-14 10:59N 55°42' E 012°36'0 0.0
2019-May-14 10:26N 55°42' E 012°36'0 0.0
2019-May-14 09:59N 55°42' E 012°36'0 0.0
2019-May-14 09:26N 55°42' E 012°36'0 0.0
2019-May-14 08:59N 55°42' E 012°36'0 0.0
2019-May-14 08:29N 55°42' E 012°36'0 0.0
2019-May-14 07:49N 55°42' E 012°36'0 1.6
2019-May-14 07:30N 55°42' E 012°36'611.6
2019-May-14 07:00N 55°47' E 012°42'815.4
2019-May-14 06:30N 55°55' E 012°39'815.8
2019-May-14 06:00N 56°03' E 012°39'714.9
2019-May-14 05:30N 56°08' E 012°29'1315.7
2019-May-14 04:41N 56°18' E 012°14'316.3
2019-May-14 04:30N 56°20' E 012°11'816.2
2019-May-14 04:00N 56°27' E 012°03'1615.7
2019-May-14 02:58N 56°42' E 011°53'816.4
2019-May-14 02:30N 56°49' E 011°48'816.8
2019-May-14 02:00N 56°57' E 011°44'917.2
2019-May-14 01:30N 57°05' E 011°38'917.1
2019-May-14 01:00N 57°14' E 011°34'917.1
2019-May-14 00:30N 57°21' E 011°28'816.5
2019-May-14 00:00N 57°29' E 011°23'816.9
2019-May-13 23:30N 57°38' E 011°21'816.7
2019-May-13 23:00N 57°46' E 011°19'816.8
2019-May-13 22:30N 57°54' E 011°16'816.3
2019-May-13 22:00N 58°02' E 011°12'816.4
2019-May-13 21:30N 58°10' E 011°07'816.7
2019-May-13 21:00N 58°18' E 011°02'816.8
2019-May-13 20:30N 58°26' E 010°57'816.5
2019-May-13 20:00N 58°34' E 010°52'816.1
2019-May-13 19:30N 58°41' E 010°47'816.1
2019-May-13 19:00N 58°49' E 010°44'816.2
2019-May-13 18:30N 58°57' E 010°42'816.6
2019-May-13 18:00N 59°05' E 010°40'816.8
2019-May-13 17:30N 59°14' E 010°37'816.5
2019-May-13 17:00N 59°22' E 010°34'816.3
2019-May-13 16:30N 59°30' E 010°34'815.6
2019-May-13 16:00N 59°38' E 010°37'612.4
2019-May-13 15:30N 59°44' E 010°34'714.0
2019-May-13 15:00N 59°50' E 010°35'612.2
2019-May-13 14:30N 59°54' E 010°45'0 0.1
2019-May-13 13:59N 59°54' E 010°45'0 0.0
2019-May-13 13:29N 59°54' E 010°45'0 0.0
2019-May-13 12:59N 59°54' E 010°45'0 0.0
2019-May-13 12:29N 59°54' E 010°45'0 0.0
2019-May-13 11:59N 59°54' E 010°45'0 0.0
2019-May-13 11:29N 59°54' E 010°45'0 0.0
2019-May-13 10:59N 59°54' E 010°45'0 0.0
2019-May-13 10:29N 59°54' E 010°45'0 0.0
2019-May-13 09:59N 59°54' E 010°45'0 0.0
2019-May-13 09:29N 59°54' E 010°45'0 0.0
2019-May-13 08:59N 59°54' E 010°45'0 0.0
2019-May-13 08:29N 59°54' E 010°45'0 0.0
2019-May-13 07:59N 59°54' E 010°45'0 0.7
2019-May-13 07:31N 59°54' E 010°44'714.5
2019-May-13 07:00N 59°48' E 010°35'714.7
2019-May-13 06:30N 59°41' E 010°36'714.6
2019-May-13 06:01N 59°34' E 010°38'816.5
2019-May-13 05:31N 59°26' E 010°34'816.5
2019-May-13 05:00N 59°18' E 010°37'816.3
2019-May-13 04:31N 59°10' E 010°39'815.9
2019-May-13 04:01N 59°02' E 010°37'815.8
2019-May-13 03:31N 58°54' E 010°37'816.6
2019-May-13 03:00N 58°47' E 010°44'816.3
2019-May-13 02:30N 58°39' E 010°47'816.8
2019-May-13 02:00N 58°31' E 010°52'917.1
2019-May-13 01:30N 58°22' E 010°57'816.9
2019-May-13 01:00N 58°15' E 011°03'816.8
2019-May-13 00:30N 58°07' E 011°10'816.6
2019-May-13 00:01N 57°59' E 011°15'816.9
2019-May-12 23:31N 57°51' E 011°20'816.1
2019-May-12 23:01N 57°44' E 011°27'816.3
2019-May-12 22:31N 57°36' E 011°30'816.5
2019-May-12 22:01N 57°28' E 011°35'816.4
2019-May-12 21:30N 57°21' E 011°41'816.3
2019-May-12 21:01N 57°15' E 011°52'816.1
2019-May-12 20:31N 57°08' E 011°58'816.8
2019-May-12 20:01N 56°60' E 012°04'5216.5
2019-May-12 16:50N 56°09' E 012°29'515.1
2019-May-12 16:31N 56°06' E 012°35'713.1
2019-May-12 16:01N 56°00' E 012°41'715.0
2019-May-12 15:31N 55°53' E 012°45'714.7
2019-May-12 15:01N 55°46' E 012°41'5 9.1
2019-May-12 14:29N 55°42' E 012°36'0 0.0
2019-May-12 13:48N 55°42' E 012°36'0 0.0
2019-May-12 13:30N 55°42' E 012°36'0 0.0
2019-May-12 12:57N 55°42' E 012°36'0 0.0
2019-May-12 12:24N 55°42' E 012°36'0 0.0
2019-May-12 11:45N 55°42' E 012°36'0 0.0
2019-May-12 11:27N 55°42' E 012°36'0 0.0
2019-May-12 11:00N 55°42' E 012°36'0 0.0
2019-May-12 10:30N 55°42' E 012°36'0 0.0
2019-May-12 09:57N 55°42' E 012°36'0 0.0
2019-May-12 09:27N 55°42' E 012°36'0 0.0
2019-May-12 09:00N 55°42' E 012°36'0 0.0
2019-May-12 08:27N 55°42' E 012°36'0 0.0
2019-May-12 07:53N 55°42' E 012°36'1 1.9
2019-May-12 07:30N 55°43' E 012°37'612.6
2019-May-12 07:00N 55°48' E 012°42'816.0
2019-May-12 06:30N 55°56' E 012°39'816.2
2019-May-12 06:00N 56°04' E 012°37'816.8
2019-May-12 05:30N 56°10' E 012°27'4915.9
2019-May-12 02:24N 56°54' E 011°47'616.2
2019-May-12 02:00N 57°00' E 011°43'816.7
2019-May-12 01:30N 57°08' E 011°37'816.4
2019-May-12 01:00N 57°16' E 011°33'816.5
2019-May-12 00:30N 57°23' E 011°27'816.7
2019-May-12 00:00N 57°31' E 011°21'817.0
2019-May-11 23:30N 57°39' E 011°15'816.8
2019-May-11 23:00N 57°47' E 011°10'816.5
2019-May-11 22:30N 57°55' E 011°04'816.3
2019-May-11 22:00N 58°02' E 010°59'816.3
2019-May-11 21:30N 58°10' E 010°53'816.3
2019-May-11 21:00N 58°17' E 010°48'816.3
2019-May-11 20:30N 58°25' E 010°42'816.1
2019-May-11 20:00N 58°33' E 010°37'816.1
2019-May-11 19:30N 58°41' E 010°34'816.5
2019-May-11 19:00N 58°49' E 010°33'816.8
2019-May-11 18:30N 58°57' E 010°35'816.9
2019-May-11 18:00N 59°06' E 010°38'816.1
2019-May-11 17:30N 59°14' E 010°37'815.9
2019-May-11 17:00N 59°21' E 010°34'815.9
2019-May-11 16:30N 59°29' E 010°34'815.9
2019-May-11 16:00N 59°37' E 010°38'713.7
2019-May-11 15:30N 59°44' E 010°34'815.3
2019-May-11 15:00N 59°51' E 010°36'5 9.8
2019-May-11 14:30N 59°54' E 010°45'0 0.0
2019-May-11 14:00N 59°54' E 010°45'0 0.0
2019-May-11 13:30N 59°54' E 010°45'0 0.0
2019-May-11 13:00N 59°54' E 010°45'0 0.0
2019-May-11 12:31N 59°54' E 010°45'0 0.0
2019-May-11 12:01N 59°54' E 010°45'0 0.0
2019-May-11 11:30N 59°54' E 010°45'0 0.0
2019-May-11 11:00N 59°54' E 010°45'0 0.0
2019-May-11 10:30N 59°54' E 010°45'0 0.0
2019-May-11 10:00N 59°54' E 010°45'0 0.0
2019-May-11 09:30N 59°54' E 010°45'0 0.0
2019-May-11 09:00N 59°54' E 010°45'0 0.0
2019-May-11 08:30N 59°54' E 010°45'0 0.0
2019-May-11 08:00N 59°54' E 010°45'0 0.3
2019-May-11 07:30N 59°54' E 010°45'612.1
2019-May-11 07:00N 59°50' E 010°36'714.2
2019-May-11 06:30N 59°43' E 010°35'714.2
2019-May-11 06:00N 59°36' E 010°38'815.7
2019-May-11 05:30N 59°28' E 010°35'816.0
2019-May-11 05:00N 59°20' E 010°36'816.4
2019-May-11 04:30N 59°12' E 010°38'816.5
2019-May-11 04:00N 59°04' E 010°41'816.5
2019-May-11 03:31N 58°56' E 010°42'816.6
2019-May-11 03:00N 58°47' E 010°44'816.7
2019-May-11 02:30N 58°39' E 010°47'816.7
2019-May-11 02:00N 58°31' E 010°51'816.7
2019-May-11 01:30N 58°23' E 010°54'817.2
2019-May-11 01:00N 58°14' E 010°56'817.1
2019-May-11 00:30N 58°06' E 010°57'816.5
2019-May-11 00:00N 57°58' E 011°01'816.3
2019-May-10 23:31N 57°51' E 011°07'816.4
2019-May-10 23:00N 57°43' E 011°13'816.1
2019-May-10 22:30N 57°36' E 011°22'816.1
2019-May-10 22:00N 57°31' E 011°32'816.8
2019-May-10 21:30N 57°24' E 011°41'816.2
2019-May-10 21:00N 57°17' E 011°48'816.4
2019-May-10 20:30N 57°09' E 011°55'816.2
2019-May-10 20:00N 57°02' E 012°01'5416.0
2019-May-10 16:37N 56°10' E 012°28'216.7
2019-May-10 16:30N 56°08' E 012°30'816.5
2019-May-10 16:00N 56°02' E 012°40'816.1
2019-May-10 15:31N 55°54' E 012°44'816.0
2019-May-10 15:00N 55°46' E 012°42'611.1
2019-May-10 14:30N 55°42' E 012°36'0 0.0
2019-May-10 13:56N 55°42' E 012°36'0 0.0
2019-May-10 13:29N 55°42' E 012°36'0 0.0
2019-May-10 12:59N 55°42' E 012°36'0 0.0
2019-May-10 12:29N 55°42' E 012°36'0 0.0
2019-May-10 11:59N 55°42' E 012°36'0 0.0
2019-May-10 11:26N 55°42' E 012°36'0 0.0
2019-May-10 10:56N 55°42' E 012°36'0 0.0
2019-May-10 10:26N 55°42' E 012°36'0 0.0
2019-May-10 09:59N 55°42' E 012°36'0 0.0
2019-May-10 09:29N 55°42' E 012°36'0 0.0
2019-May-10 08:59N 55°42' E 012°36'0 0.0
2019-May-10 08:26N 55°42' E 012°36'0 0.0
2019-May-10 07:59N 55°42' E 012°36'1 2.0
2019-May-10 07:31N 55°43' E 012°37'713.5
2019-May-10 07:01N 55°49' E 012°42'714.9
2019-May-10 06:30N 55°56' E 012°39'715.0
2019-May-10 06:00N 56°04' E 012°38'714.6
2019-May-10 05:30N 56°08' E 012°28'4515.8
2019-May-10 02:39N 56°48' E 011°49'1116.5
2019-May-10 01:59N 56°58' E 011°42'  
Track history (hours):
 
Tides and Currents Weather Stations Pressure Air Temp Water Temp Dewpoint Dewpoint Depression Visibility Wind Speed Wind Dir Waves Ship Positions

Crown Of Scandinavia

Last reported at 2019-May-20 01:38 UTC. Time now 2019-May-20 02:26 UTC.
Position N 57°11' E 011°57'.

Length 171 m; draft 6.3 m.

Type: Ship. MMSI: 219592000.

Date/timePositionNaut miles runAvg speedWind from/ knotsBaromVisibWave heightAir tempDewpointWater temp
2019-May-20 01:38N 57°11' E 011°57'216.4
2019-May-20 01:30N 57°12' E 011°55'816.3
2019-May-20 01:00N 57°19' E 011°46'816.1
2019-May-20 00:30N 57°26' E 011°38'816.2
2019-May-20 00:00N 57°32' E 011°30'816.4
2019-May-19 23:30N 57°39' E 011°21'816.2
2019-May-19 23:00N 57°46' E 011°14'815.5
2019-May-19 22:30N 57°53' E 011°06'815.5
2019-May-19 22:00N 58°00' E 011°01'816.3
2019-May-19 21:30N 58°08' E 010°55'816.6
2019-May-19 21:00N 58°15' E 010°48'816.4
2019-May-19 20:30N 58°23' E 010°43'816.0
2019-May-19 20:00N 58°30' E 010°38'815.9
2019-May-19 19:30N 58°38' E 010°36'816.1
2019-May-19 19:00N 58°46' E 010°35'815.9
2019-May-19 18:30N 58°54' E 010°35'816.3
2019-May-19 18:00N 59°02' E 010°37'816.5
2019-May-19 17:30N 59°10' E 010°38'816.5
2019-May-19 17:00N 59°19' E 010°35'816.4
2019-May-19 16:30N 59°27' E 010°33'816.0
2019-May-19 16:00N 59°34' E 010°38'713.8
2019-May-19 15:30N 59°41' E 010°36'714.8
2019-May-19 15:00N 59°49' E 010°34'713.6
2019-May-19 14:30N 59°54' E 010°43'1 1.5
2019-May-19 13:58N 59°54' E 010°45'0 0.0
2019-May-19 13:28N 59°54' E 010°45'0 0.0
2019-May-19 12:58N 59°54' E 010°45'0 0.0
2019-May-19 12:28N 59°54' E 010°45'0 0.0
2019-May-19 11:58N 59°54' E 010°45'0 0.0
2019-May-19 11:28N 59°54' E 010°45'0 0.0
2019-May-19 10:58N 59°54' E 010°45'0 0.0
2019-May-19 10:28N 59°54' E 010°45'0 0.0
2019-May-19 09:58N 59°54' E 010°45'0 0.0
2019-May-19 09:28N 59°54' E 010°45'0 0.0
2019-May-19 08:58N 59°54' E 010°45'0 0.0
2019-May-19 08:28N 59°54' E 010°45'0 0.0
2019-May-19 08:00N 59°54' E 010°45'0 0.6
2019-May-19 07:30N 59°54' E 010°44'713.7
2019-May-19 07:00N 59°49' E 010°35'714.4
2019-May-19 06:30N 59°42' E 010°36'714.3
2019-May-19 06:00N 59°35' E 010°38'815.9
2019-May-19 05:30N 59°27' E 010°34'815.6
2019-May-19 05:00N 59°19' E 010°36'815.7
2019-May-19 04:30N 59°12' E 010°39'815.2
2019-May-19 04:00N 59°04' E 010°40'815.5
2019-May-19 03:30N 58°56' E 010°42'815.6
2019-May-19 03:00N 58°49' E 010°45'815.7
2019-May-19 02:30N 58°41' E 010°47'815.7
2019-May-19 02:00N 58°33' E 010°50'815.5
2019-May-19 01:30N 58°26' E 010°55'815.7
2019-May-19 01:00N 58°19' E 011°01'815.7
2019-May-19 00:30N 58°11' E 011°06'816.0
2019-May-19 00:00N 58°04' E 011°11'815.8
2019-May-18 23:30N 57°56' E 011°16'816.2
2019-May-18 23:00N 57°49' E 011°22'816.3
2019-May-18 22:30N 57°41' E 011°27'816.3
2019-May-18 22:00N 57°34' E 011°32'816.3
2019-May-18 21:30N 57°26' E 011°38'816.2
2019-May-18 21:00N 57°19' E 011°46'816.1
2019-May-18 20:30N 57°12' E 011°53'815.9
2019-May-18 20:00N 57°05' E 011°59'816.0
2019-May-18 19:30N 56°57' E 012°05'4916.3
2019-May-18 16:31N 56°11' E 012°29'017.8
2019-May-18 16:30N 56°11' E 012°30'917.6
2019-May-18 16:00N 56°04' E 012°39'816.5
2019-May-18 15:30N 55°56' E 012°44'815.7
2019-May-18 15:00N 55°48' E 012°43'613.0
2019-May-18 14:30N 55°42' E 012°37'1 0.9
2019-May-18 13:58N 55°42' E 012°36'0 0.0
2019-May-18 13:28N 55°42' E 012°36'0 0.0
2019-May-18 12:58N 55°42' E 012°36'0 0.0
2019-May-18 12:28N 55°42' E 012°36'0 0.0
2019-May-18 11:58N 55°42' E 012°36'0 0.0
2019-May-18 11:28N 55°42' E 012°36'0 0.0
2019-May-18 10:55N 55°42' E 012°36'0 0.0
2019-May-18 10:28N 55°42' E 012°36'0 0.0
2019-May-18 09:58N 55°42' E 012°36'0 0.0
2019-May-18 09:28N 55°42' E 012°36'0 0.0
2019-May-18 08:58N 55°42' E 012°36'0 0.0
2019-May-18 08:28N 55°42' E 012°36'0 0.0
2019-May-18 08:00N 55°42' E 012°36'2 3.0
2019-May-18 07:30N 55°43' E 012°38'714.0
2019-May-18 07:01N 55°50' E 012°42'815.4
2019-May-18 06:30N 55°57' E 012°38'714.7
2019-May-18 06:00N 56°04' E 012°37'816.0
2019-May-18 05:30N 56°09' E 012°25'5417.1
2019-May-18 02:22N 56°58' E 011°43'617.4
2019-May-18 02:00N 57°04' E 011°40'816.9
2019-May-18 01:30N 57°12' E 011°33'815.7
2019-May-18 01:00N 57°19' E 011°28'816.1
2019-May-18 00:30N 57°27' E 011°25'816.2
2019-May-18 00:00N 57°34' E 011°18'815.8
2019-May-17 23:30N 57°41' E 011°11'815.9
2019-May-17 23:00N 57°49' E 011°07'816.3
2019-May-17 22:30N 57°56' E 011°02'816.6
2019-May-17 22:00N 58°04' E 010°56'816.7
2019-May-17 21:30N 58°12' E 010°51'917.0
2019-May-17 21:00N 58°20' E 010°45'816.7
2019-May-17 20:30N 58°28' E 010°40'816.2
2019-May-17 20:00N 58°36' E 010°36'816.0
2019-May-17 19:30N 58°44' E 010°35'816.4
2019-May-17 19:00N 58°52' E 010°35'816.6
2019-May-17 18:30N 58°60' E 010°36'816.7
2019-May-17 18:00N 59°08' E 010°38'816.4
2019-May-17 17:30N 59°16' E 010°36'816.5
2019-May-17 17:00N 59°25' E 010°34'816.1
2019-May-17 16:30N 59°33' E 010°36'714.9
2019-May-17 16:00N 59°40' E 010°37'612.7
2019-May-17 15:30N 59°46' E 010°33'713.7
2019-May-17 15:00N 59°52' E 010°38'4 7.2
2019-May-17 14:30N 59°54' E 010°45'0 0.0
2019-May-17 13:59N 59°54' E 010°45'0 0.0
2019-May-17 13:29N 59°54' E 010°45'0 0.0
2019-May-17 12:59N 59°54' E 010°45'0 0.0
2019-May-17 12:29N 59°54' E 010°45'0 0.0
2019-May-17 11:59N 59°54' E 010°45'0 0.0
2019-May-17 11:29N 59°54' E 010°45'0 0.0
2019-May-17 10:59N 59°54' E 010°45'0 0.0
2019-May-17 10:29N 59°54' E 010°45'0 0.0
2019-May-17 09:59N 59°54' E 010°45'0 0.0
2019-May-17 09:29N 59°54' E 010°45'0 0.0
2019-May-17 08:59N 59°54' E 010°45'0 0.0
2019-May-17 08:29N 59°54' E 010°45'0 0.0
2019-May-17 07:59N 59°54' E 010°45'0 0.5
2019-May-17 07:30N 59°54' E 010°44'714.2
2019-May-17 07:00N 59°49' E 010°35'714.6
2019-May-17 06:31N 59°42' E 010°36'714.4
2019-May-17 06:00N 59°34' E 010°38'815.9
2019-May-17 05:30N 59°27' E 010°34'815.7
2019-May-17 05:00N 59°19' E 010°36'815.8
2019-May-17 04:30N 59°11' E 010°39'815.9
2019-May-17 04:00N 59°03' E 010°41'816.0
2019-May-17 03:30N 58°55' E 010°42'816.3
2019-May-17 03:00N 58°47' E 010°45'816.1
2019-May-17 02:30N 58°39' E 010°46'816.0
2019-May-17 02:00N 58°32' E 010°52'815.9
2019-May-17 01:30N 58°24' E 010°57'816.1
2019-May-17 01:00N 58°17' E 011°03'816.3
2019-May-17 00:30N 58°09' E 011°08'816.1
2019-May-17 00:00N 58°02' E 011°13'816.3
2019-May-16 23:30N 57°54' E 011°18'816.4
2019-May-16 23:00N 57°46' E 011°24'816.7
2019-May-16 22:30N 57°39' E 011°30'816.5
2019-May-16 22:00N 57°31' E 011°37'816.5
2019-May-16 21:30N 57°23' E 011°41'816.4
2019-May-16 21:00N 57°16' E 011°48'816.7
2019-May-16 20:30N 57°09' E 011°56'816.6
2019-May-16 20:00N 57°01' E 012°02'5316.4
2019-May-16 16:47N 56°10' E 012°29'517.9
2019-May-16 16:30N 56°06' E 012°34'817.0
2019-May-16 16:00N 55°59' E 012°42'816.4
2019-May-16 15:30N 55°51' E 012°44'815.4
2019-May-16 15:00N 55°44' E 012°39'3 4.7
2019-May-16 14:28N 55°42' E 012°36'0 0.0
2019-May-16 13:52N 55°42' E 012°36'0 0.0
2019-May-16 13:22N 55°42' E 012°36'0 0.0
2019-May-16 12:58N 55°42' E 012°36'0 0.0
2019-May-16 12:28N 55°42' E 012°36'0 0.0
2019-May-16 11:58N 55°42' E 012°36'0 0.0
2019-May-16 11:28N 55°42' E 012°36'0 0.0
2019-May-16 10:55N 55°42' E 012°36'0 0.0
2019-May-16 10:28N 55°42' E 012°36'0 0.0
2019-May-16 09:58N 55°42' E 012°36'0 0.0
2019-May-16 09:25N 55°42' E 012°36'0 0.0
2019-May-16 08:55N 55°42' E 012°36'0 0.0
2019-May-16 08:28N 55°42' E 012°36'0 0.0
2019-May-16 07:55N 55°42' E 012°36'1 1.4
2019-May-16 07:30N 55°42' E 012°37'613.1
2019-May-16 07:01N 55°48' E 012°42'815.0
2019-May-16 06:31N 55°55' E 012°39'816.1
2019-May-16 06:01N 56°04' E 012°38'815.5
2019-May-16 05:31N 56°09' E 012°28'2116.5
2019-May-16 04:14N 56°29' E 012°16'4517.5
2019-May-16 01:39N 57°12' E 011°54'317.3
2019-May-16 01:30N 57°14' E 011°51'817.0
2019-May-16 01:01N 57°21' E 011°43'917.0
2019-May-16 00:31N 57°28' E 011°33'817.0
2019-May-16 00:00N 57°35' E 011°23'816.6
2019-May-15 23:31N 57°42' E 011°17'817.0
2019-May-15 23:00N 57°50' E 011°11'816.9
2019-May-15 22:31N 57°57' E 011°03'917.1
2019-May-15 22:00N 58°05' E 010°56'817.0
2019-May-15 21:30N 58°13' E 010°50'917.1
2019-May-15 21:00N 58°21' E 010°44'816.5
2019-May-15 20:31N 58°29' E 010°39'815.8
2019-May-15 20:01N 58°37' E 010°37'816.7
2019-May-15 19:30N 58°45' E 010°36'817.0
2019-May-15 19:01N 58°53' E 010°35'816.9
2019-May-15 18:31N 59°02' E 010°37'816.8
2019-May-15 18:00N 59°10' E 010°38'816.4
2019-May-15 17:31N 59°18' E 010°36'816.6
2019-May-15 17:00N 59°26' E 010°33'816.3
2019-May-15 16:30N 59°34' E 010°38'714.6
2019-May-15 16:00N 59°41' E 010°36'815.3
2019-May-15 15:30N 59°49' E 010°34'713.7
2019-May-15 15:00N 59°54' E 010°44'0 0.9
2019-May-15 14:30N 59°54' E 010°45'0 0.0
2019-May-15 14:00N 59°54' E 010°45'0 0.0
2019-May-15 13:30N 59°54' E 010°45'0 0.0
2019-May-15 12:58N 59°54' E 010°45'0 0.0
2019-May-15 12:30N 59°54' E 010°45'0 0.0
2019-May-15 12:00N 59°54' E 010°45'0 0.0
2019-May-15 11:29N 59°54' E 010°45'0 0.0
2019-May-15 10:59N 59°54' E 010°45'0 0.0
2019-May-15 10:28N 59°54' E 010°45'0 0.0
2019-May-15 10:00N 59°54' E 010°45'0 0.0
2019-May-15 09:31N 59°54' E 010°45'0 0.0
2019-May-15 09:00N 59°54' E 010°45'0 0.0
2019-May-15 08:30N 59°54' E 010°45'0 0.0
2019-May-15 07:59N 59°54' E 010°45'0 0.3
2019-May-15 07:30N 59°54' E 010°45'611.9
2019-May-15 07:00N 59°50' E 010°36'714.6
2019-May-15 06:30N 59°43' E 010°35'713.9
2019-May-15 06:01N 59°36' E 010°38'815.5
2019-May-15 05:30N 59°28' E 010°35'815.5
2019-May-15 05:00N 59°21' E 010°36'815.9
2019-May-15 04:30N 59°13' E 010°38'815.9
2019-May-15 04:00N 59°05' E 010°41'815.9
2019-May-15 03:30N 58°57' E 010°42'815.9
2019-May-15 03:01N 58°49' E 010°44'815.8
2019-May-15 02:30N 58°41' E 010°46'816.0
2019-May-15 02:00N 58°34' E 010°51'816.0
2019-May-15 01:31N 58°26' E 010°56'815.8
2019-May-15 01:00N 58°19' E 011°02'816.1
2019-May-15 00:31N 58°11' E 011°06'816.5
2019-May-15 00:00N 58°03' E 011°11'816.3
2019-May-14 23:31N 57°56' E 011°16'816.1
2019-May-14 23:01N 57°48' E 011°21'816.1
2019-May-14 22:31N 57°41' E 011°27'816.2
2019-May-14 22:00N 57°33' E 011°33'816.3
2019-May-14 21:30N 57°26' E 011°39'816.3
2019-May-14 21:01N 57°19' E 011°46'816.6
2019-May-14 20:30N 57°11' E 011°54'816.7
2019-May-14 20:01N 57°04' E 011°60'916.9
2019-May-14 19:30N 56°55' E 012°04'816.9
2019-May-14 19:00N 56°48' E 012°09'4016.3
2019-May-14 16:34N 56°10' E 012°29'117.2
2019-May-14 16:31N 56°09' E 012°30'816.8
2019-May-14 16:00N 56°02' E 012°40'816.2
2019-May-14 15:30N 55°54' E 012°44'815.5
2019-May-14 15:01N 55°47' E 012°42'611.4
2019-May-14 14:30N 55°42' E 012°36'0 0.1
2019-May-14 13:59N 55°42' E 012°36'0 0.0
2019-May-14 13:20N 55°42' E 012°36'0 0.0
2019-May-14 12:59N 55°42' E 012°36'0 0.0
2019-May-14 12:29N 55°42' E 012°36'0 0.0
2019-May-14 11:56N 55°42' E 012°36'0 0.0
2019-May-14 11:14N 55°42' E 012°36'0 0.0
2019-May-14 10:59N 55°42' E 012°36'0 0.0
2019-May-14 10:26N 55°42' E 012°36'0 0.0
2019-May-14 09:59N 55°42' E 012°36'0 0.0
2019-May-14 09:26N 55°42' E 012°36'0 0.0
2019-May-14 08:59N 55°42' E 012°36'0 0.0
2019-May-14 08:29N 55°42' E 012°36'0 0.0
2019-May-14 07:49N 55°42' E 012°36'0 1.6
2019-May-14 07:30N 55°42' E 012°36'611.6
2019-May-14 07:00N 55°47' E 012°42'815.4
2019-May-14 06:30N 55°55' E 012°39'815.8
2019-May-14 06:00N 56°03' E 012°39'714.9
2019-May-14 05:30N 56°08' E 012°29'1315.7
2019-May-14 04:41N 56°18' E 012°14'316.3
2019-May-14 04:30N 56°20' E 012°11'816.2
2019-May-14 04:00N 56°27' E 012°03'1615.7
2019-May-14 02:58N 56°42' E 011°53'816.4
2019-May-14 02:30N 56°49' E 011°48'816.8
2019-May-14 02:00N 56°57' E 011°44'917.2
2019-May-14 01:30N 57°05' E 011°38'917.1
2019-May-14 01:00N 57°14' E 011°34'917.1
2019-May-14 00:30N 57°21' E 011°28'816.5
2019-May-14 00:00N 57°29' E 011°23'816.9
2019-May-13 23:30N 57°38' E 011°21'816.7
2019-May-13 23:00N 57°46' E 011°19'816.8
2019-May-13 22:30N 57°54' E 011°16'816.3
2019-May-13 22:00N 58°02' E 011°12'816.4
2019-May-13 21:30N 58°10' E 011°07'816.7
2019-May-13 21:00N 58°18' E 011°02'816.8
2019-May-13 20:30N 58°26' E 010°57'816.5
2019-May-13 20:00N 58°34' E 010°52'816.1
2019-May-13 19:30N 58°41' E 010°47'816.1
2019-May-13 19:00N 58°49' E 010°44'816.2
2019-May-13 18:30N 58°57' E 010°42'816.6
2019-May-13 18:00N 59°05' E 010°40'816.8
2019-May-13 17:30N 59°14' E 010°37'816.5
2019-May-13 17:00N 59°22' E 010°34'816.3
2019-May-13 16:30N 59°30' E 010°34'815.6
2019-May-13 16:00N 59°38' E 010°37'612.4
2019-May-13 15:30N 59°44' E 010°34'714.0
2019-May-13 15:00N 59°50' E 010°35'612.2
2019-May-13 14:30N 59°54' E 010°45'0 0.1
2019-May-13 13:59N 59°54' E 010°45'0 0.0
2019-May-13 13:29N 59°54' E 010°45'0 0.0
2019-May-13 12:59N 59°54' E 010°45'0 0.0
2019-May-13 12:29N 59°54' E 010°45'0 0.0
2019-May-13 11:59N 59°54' E 010°45'0 0.0
2019-May-13 11:29N 59°54' E 010°45'0 0.0
2019-May-13 10:59N 59°54' E 010°45'0 0.0
2019-May-13 10:29N 59°54' E 010°45'0 0.0
2019-May-13 09:59N 59°54' E 010°45'0 0.0
2019-May-13 09:29N 59°54' E 010°45'0 0.0
2019-May-13 08:59N 59°54' E 010°45'0 0.0
2019-May-13 08:29N 59°54' E 010°45'0 0.0
2019-May-13 07:59N 59°54' E 010°45'0 0.7
2019-May-13 07:31N 59°54' E 010°44'714.5
2019-May-13 07:00N 59°48' E 010°35'714.7
2019-May-13 06:30N 59°41' E 010°36'714.6
2019-May-13 06:01N 59°34' E 010°38'816.5
2019-May-13 05:31N 59°26' E 010°34'816.5
2019-May-13 05:00N 59°18' E 010°37'816.3
2019-May-13 04:31N 59°10' E 010°39'815.9
2019-May-13 04:01N 59°02' E 010°37'815.8
2019-May-13 03:31N 58°54' E 010°37'816.6
2019-May-13 03:00N 58°47' E 010°44'816.3
2019-May-13 02:30N 58°39' E 010°47'816.8
2019-May-13 02:00N 58°31' E 010°52'917.1
2019-May-13 01:30N 58°22' E 010°57'816.9
2019-May-13 01:00N 58°15' E 011°03'816.8
2019-May-13 00:30N 58°07' E 011°10'816.6
2019-May-13 00:01N 57°59' E 011°15'816.9
2019-May-12 23:31N 57°51' E 011°20'816.1
2019-May-12 23:01N 57°44' E 011°27'816.3
2019-May-12 22:31N 57°36' E 011°30'816.5
2019-May-12 22:01N 57°28' E 011°35'816.4
2019-May-12 21:30N 57°21' E 011°41'816.3
2019-May-12 21:01N 57°15' E 011°52'816.1
2019-May-12 20:31N 57°08' E 011°58'816.8
2019-May-12 20:01N 56°60' E 012°04'5216.5
2019-May-12 16:50N 56°09' E 012°29'515.1
2019-May-12 16:31N 56°06' E 012°35'713.1
2019-May-12 16:01N 56°00' E 012°41'715.0
2019-May-12 15:31N 55°53' E 012°45'714.7
2019-May-12 15:01N 55°46' E 012°41'5 9.1
2019-May-12 14:29N 55°42' E 012°36'0 0.0
2019-May-12 13:48N 55°42' E 012°36'0 0.0
2019-May-12 13:30N 55°42' E 012°36'0 0.0
2019-May-12 12:57N 55°42' E 012°36'0 0.0
2019-May-12 12:24N 55°42' E 012°36'0 0.0
2019-May-12 11:45N 55°42' E 012°36'0 0.0
2019-May-12 11:27N 55°42' E 012°36'0 0.0
2019-May-12 11:00N 55°42' E 012°36'0 0.0
2019-May-12 10:30N 55°42' E 012°36'0 0.0
2019-May-12 09:57N 55°42' E 012°36'0 0.0
2019-May-12 09:27N 55°42' E 012°36'0 0.0
2019-May-12 09:00N 55°42' E 012°36'0 0.0
2019-May-12 08:27N 55°42' E 012°36'0 0.0
2019-May-12 07:53N 55°42' E 012°36'1 1.9
2019-May-12 07:30N 55°43' E 012°37'612.6
2019-May-12 07:00N 55°48' E 012°42'816.0
2019-May-12 06:30N 55°56' E 012°39'816.2
2019-May-12 06:00N 56°04' E 012°37'816.8
2019-May-12 05:30N 56°10' E 012°27'4915.9
2019-May-12 02:24N 56°54' E 011°47'616.2
2019-May-12 02:00N 57°00' E 011°43'816.7
2019-May-12 01:30N 57°08' E 011°37'816.4
2019-May-12 01:00N 57°16' E 011°33'816.5
2019-May-12 00:30N 57°23' E 011°27'816.7
2019-May-12 00:00N 57°31' E 011°21'817.0
2019-May-11 23:30N 57°39' E 011°15'816.8
2019-May-11 23:00N 57°47' E 011°10'816.5
2019-May-11 22:30N 57°55' E 011°04'816.3
2019-May-11 22:00N 58°02' E 010°59'816.3
2019-May-11 21:30N 58°10' E 010°53'816.3
2019-May-11 21:00N 58°17' E 010°48'816.3
2019-May-11 20:30N 58°25' E 010°42'816.1
2019-May-11 20:00N 58°33' E 010°37'816.1
2019-May-11 19:30N 58°41' E 010°34'816.5
2019-May-11 19:00N 58°49' E 010°33'816.8
2019-May-11 18:30N 58°57' E 010°35'816.9
2019-May-11 18:00N 59°06' E 010°38'816.1
2019-May-11 17:30N 59°14' E 010°37'815.9
2019-May-11 17:00N 59°21' E 010°34'815.9
2019-May-11 16:30N 59°29' E 010°34'815.9
2019-May-11 16:00N 59°37' E 010°38'713.7
2019-May-11 15:30N 59°44' E 010°34'815.3
2019-May-11 15:00N 59°51' E 010°36'5 9.8
2019-May-11 14:30N 59°54' E 010°45'0 0.0
2019-May-11 14:00N 59°54' E 010°45'0 0.0
2019-May-11 13:30N 59°54' E 010°45'0 0.0
2019-May-11 13:00N 59°54' E 010°45'0 0.0
2019-May-11 12:31N 59°54' E 010°45'0 0.0
2019-May-11 12:01N 59°54' E 010°45'0 0.0
2019-May-11 11:30N 59°54' E 010°45'0 0.0
2019-May-11 11:00N 59°54' E 010°45'0 0.0
2019-May-11 10:30N 59°54' E 010°45'0 0.0
2019-May-11 10:00N 59°54' E 010°45'0 0.0
2019-May-11 09:30N 59°54' E 010°45'0 0.0
2019-May-11 09:00N 59°54' E 010°45'0 0.0
2019-May-11 08:30N 59°54' E 010°45'0 0.0
2019-May-11 08:00N 59°54' E 010°45'0 0.3
2019-May-11 07:30N 59°54' E 010°45'612.1
2019-May-11 07:00N 59°50' E 010°36'714.2
2019-May-11 06:30N 59°43' E 010°35'714.2
2019-May-11 06:00N 59°36' E 010°38'815.7
2019-May-11 05:30N 59°28' E 010°35'816.0
2019-May-11 05:00N 59°20' E 010°36'816.4
2019-May-11 04:30N 59°12' E 010°38'816.5
2019-May-11 04:00N 59°04' E 010°41'816.5
2019-May-11 03:31N 58°56' E 010°42'816.6
2019-May-11 03:00N 58°47' E 010°44'816.7
2019-May-11 02:30N 58°39' E 010°47'816.7
2019-May-11 02:00N 58°31' E 010°51'816.7
2019-May-11 01:30N 58°23' E 010°54'817.2
2019-May-11 01:00N 58°14' E 010°56'817.1
2019-May-11 00:30N 58°06' E 010°57'816.5
2019-May-11 00:00N 57°58' E 011°01'816.3
2019-May-10 23:31N 57°51' E 011°07'816.4
2019-May-10 23:00N 57°43' E 011°13'816.1
2019-May-10 22:30N 57°36' E 011°22'816.1
2019-May-10 22:00N 57°31' E 011°32'816.8
2019-May-10 21:30N 57°24' E 011°41'816.2
2019-May-10 21:00N 57°17' E 011°48'816.4
2019-May-10 20:30N 57°09' E 011°55'816.2
2019-May-10 20:00N 57°02' E 012°01'5416.0
2019-May-10 16:37N 56°10' E 012°28'216.7
2019-May-10 16:30N 56°08' E 012°30'816.5
2019-May-10 16:00N 56°02' E 012°40'816.1
2019-May-10 15:31N 55°54' E 012°44'816.0
2019-May-10 15:00N 55°46' E 012°42'611.1
2019-May-10 14:30N 55°42' E 012°36'0 0.0
2019-May-10 13:56N 55°42' E 012°36'0 0.0
2019-May-10 13:29N 55°42' E 012°36'0 0.0
2019-May-10 12:59N 55°42' E 012°36'0 0.0
2019-May-10 12:29N 55°42' E 012°36'0 0.0
2019-May-10 11:59N 55°42' E 012°36'0 0.0
2019-May-10 11:26N 55°42' E 012°36'0 0.0
2019-May-10 10:56N 55°42' E 012°36'0 0.0
2019-May-10 10:26N 55°42' E 012°36'0 0.0
2019-May-10 09:59N 55°42' E 012°36'0 0.0
2019-May-10 09:29N 55°42' E 012°36'0 0.0
2019-May-10 08:59N 55°42' E 012°36'0 0.0
2019-May-10 08:26N 55°42' E 012°36'0 0.0
2019-May-10 07:59N 55°42' E 012°36'1 2.0
2019-May-10 07:31N 55°43' E 012°37'713.5
2019-May-10 07:01N 55°49' E 012°42'714.9
2019-May-10 06:30N 55°56' E 012°39'715.0
2019-May-10 06:00N 56°04' E 012°38'714.6
2019-May-10 05:30N 56°08' E 012°28'4515.8
2019-May-10 02:39N 56°48' E 011°49'1116.5
2019-May-10 01:59N 56°58' E 011°42'  

Dump ship's entire track history